Time;durP1;ratioP1;P1;durP2;ratioP2;P2;SDS_P1;SDS_P2;PMS_P1;PMS_P2;Temp;Humidity;BMP_temperature;BMP_pressure;BME280_temperature;BME280_humidity;BME280_pressure;Samples;Min_cycle;Max_cycle;Signal;HPM_P1;HPM_P2
2022/08/21 00:00:58;;;;;;;;;;;;;;;;;;10498679;28;19925;-63
2022/08/21 00:06:01;;;;;;;;;;;;;;;;;;10498414;28;19947;-63
2022/08/21 00:11:03;;;;;;;;;;;;;;;;;;10498487;28;19924;-63
2022/08/21 00:16:05;;;;;;;;;;;;;;;;;;10498203;28;19995;-63
2022/08/21 00:21:07;;;;;;;;;;;;;;;;;;10498368;28;19924;-63
2022/08/21 00:26:09;;;;;;;;;;;;;;;;;;10506288;28;19936;-63
2022/08/21 00:31:11;;;;;;;;;;;;;;;;;;10505486;28;19929;-63
2022/08/21 00:36:13;;;;;;;;;;;;;;;;;;10505944;28;19932;-63
2022/08/21 00:41:15;;;;;;;;;;;;;;;;;;10506170;28;19924;-63
2022/08/21 00:46:37;;;;;;;;;;;;;;;;;;10505014;28;20020;-63
2022/08/21 00:51:39;;;;;;;;;;;;;;;;;;10505302;28;19929;-63
2022/08/21 00:56:41;;;;;;;;;;;;;;;;;;10505168;28;19924;-63
2022/08/21 01:01:43;;;;;;;;;;;;;;;;;;10504889;28;19931;-63
2022/08/21 01:06:45;;;;;;;;;;;;;;;;;;10504648;28;19925;-63
2022/08/21 01:11:48;;;;;;;;;;;;;;;;;;10504077;28;19925;-63
2022/08/21 01:16:50;;;;;;;;;;;;;;;;;;10504396;28;19928;-63
2022/08/21 01:21:53;;;;;;;;;;;;;;;;;;10504241;28;19928;-63
2022/08/21 01:26:55;;;;;;;;;;;;;;;;;;10503940;28;19931;-63
2022/08/21 01:31:57;;;;;;;;;;;;;;;;;;10486029;28;19931;-63
2022/08/21 01:36:59;;;;;;;;;;;;;;;;;;10503023;28;19936;-63
2022/08/21 01:42:01;;;;;;;;;;;;;;;;;;10502893;28;19924;-63
2022/08/21 01:47:03;;;;;;;;;;;;;;;;;;10503277;28;19924;-63
2022/08/21 01:52:05;;;;;;;;;;;;;;;;;;10502385;28;19925;-63
2022/08/21 01:57:07;;;;;;;;;;;;;;;;;;10502739;28;19925;-63
2022/08/21 02:02:09;;;;;;;;;;;;;;;;;;10502011;28;19935;-63
2022/08/21 02:07:12;;;;;;;;;;;;;;;;;;10502378;28;19931;-63
2022/08/21 02:12:14;;;;;;;;;;;;;;;;;;10502210;28;19925;-63
2022/08/21 02:17:16;;;;;;;;;;;;;;;;;;10501965;28;19924;-63
2022/08/21 02:22:18;;;;;;;;;;;;;;;;;;10501164;28;19925;-63
2022/08/21 02:27:20;;;;;;;;;;;;;;;;;;10500835;28;20379;-63
2022/08/21 02:32:27;;;;;;;;;;;;;;;;;;10500758;28;19967;-63
2022/08/21 02:37:29;;;;;;;;;;;;;;;;;;10501152;28;19924;-63
2022/08/21 02:42:31;;;;;;;;;;;;;;;;;;10500290;28;20275;-63
2022/08/21 02:47:33;;;;;;;;;;;;;;;;;;10499493;28;19924;-63
2022/08/21 02:52:36;;;;;;;;;;;;;;;;;;10499875;28;19924;-63
2022/08/21 02:57:38;;;;;;;;;;;;;;;;;;10500359;28;19925;-63
2022/08/21 03:02:40;;;;;;;;;;;;;;;;;;10499537;28;20023;-63
2022/08/21 03:07:42;;;;;;;;;;;;;;;;;;10499898;28;19931;-63
2022/08/21 03:12:45;;;;;;;;;;;;;;;;;;10499221;28;19931;-63
2022/08/21 03:17:47;;;;;;;;;;;;;;;;;;10499014;28;19925;-63
2022/08/21 03:22:49;;;;;;;;;;;;;;;;;;10499549;28;19925;-63
2022/08/21 03:27:53;;;;;;;;;;;;;;;;;;10498702;28;19979;-63
2022/08/21 03:32:59;;;;;;;;;;;;;;;;;;10500119;28;19925;-63
2022/08/21 03:38:01;;;;;;;;;;;;;;;;;;10499160;28;19925;-63
2022/08/21 03:43:04;;;;;;;;;;;;;;;;;;10499085;28;19924;-63
2022/08/21 03:48:06;;;;;;;;;;;;;;;;;;10498216;28;19924;-63
2022/08/21 03:53:08;;;;;;;;;;;;;;;;;;10498854;28;19925;-63
2022/08/21 03:58:18;;;;;;;;;;;;;;;;;;10505869;28;19925;-63
2022/08/21 04:03:20;;;;;;;;;;;;;;;;;;10512428;28;19924;-63
2022/08/21 04:08:22;;;;;;;;;;;;;;;;;;10511638;28;20291;-63
2022/08/21 04:13:24;;;;;;;;;;;;;;;;;;10512284;28;19932;-63
2022/08/21 04:18:26;;;;;;;;;;;;;;;;;;10511460;28;20390;-63
2022/08/21 04:23:28;;;;;;;;;;;;;;;;;;10512068;28;19925;-63
2022/08/21 04:28:30;;;;;;;;;;;;;;;;;;10511891;28;19928;-63
2022/08/21 04:33:33;;;;;;;;;;;;;;;;;;10511266;28;19925;-63
2022/08/21 04:38:35;;;;;;;;;;;;;;;;;;10511788;28;19924;-63
2022/08/21 04:43:38;;;;;;;;;;;;;;;;;;10511032;28;20046;-63
2022/08/21 04:48:40;;;;;;;;;;;;;;;;;;10510878;28;19928;-63
2022/08/21 04:53:42;;;;;;;;;;;;;;;;;;10511501;28;19935;-63
2022/08/21 04:58:45;;;;;;;;;;;;;;;;;;10511379;28;19935;-63
2022/08/21 05:03:47;;;;;;;;;;;;;;;;;;10511331;28;19925;-63
2022/08/21 05:08:49;;;;;;;;;;;;;;;;;;10508104;28;19931;-62
2022/08/21 05:13:51;;;;;;;;;;;;;;;;;;10504545;28;19928;-62
2022/08/21 05:18:57;;;;;;;;;;;;;;;;;;10504401;28;19931;-62
2022/08/21 05:23:59;;;;;;;;;;;;;;;;;;10503587;28;19924;-63
2022/08/21 05:29:01;;;;;;;;;;;;;;;;;;10503771;28;20394;-63
2022/08/21 05:34:03;;;;;;;;;;;;;;;;;;10503824;28;19932;-63
2022/08/21 05:39:05;;;;;;;;;;;;;;;;;;10502957;28;19925;-63
2022/08/21 05:44:07;;;;;;;;;;;;;;;;;;10503189;28;19932;-62
2022/08/21 05:49:11;;;;;;;;;;;;;;;;;;10503140;28;19958;-62
2022/08/21 05:54:13;;;;;;;;;;;;;;;;;;10503016;28;19924;-62
2022/08/21 05:59:15;;;;;;;;;;;;;;;;;;10502144;28;19947;-62
2022/08/21 06:04:17;;;;;;;;;;;;;;;;;;10502643;28;19924;-63
2022/08/21 06:09:20;;;;;;;;;;;;;;;;;;10502286;28;19924;-62
2022/08/21 06:14:22;;;;;;;;;;;;;;;;;;10502215;28;19924;-62
2022/08/21 06:19:24;;;;;;;;;;;;;;;;;;10501141;28;20375;-63
2022/08/21 06:24:26;;;;;;;;;;;;;;;;;;10501111;28;20371;-63
2022/08/21 06:29:28;;;;;;;;;;;;;;;;;;10501431;28;19931;-62
2022/08/21 06:34:30;;;;;;;;;;;;;;;;;;10501324;28;19928;-62
2022/08/21 06:39:32;;;;;;;;;;;;;;;;;;10500483;28;20287;-62
2022/08/21 06:44:34;;;;;;;;;;;;;;;;;;10500177;28;19931;-63
2022/08/21 06:49:36;;;;;;;;;;;;;;;;;;10482987;28;19931;-63
2022/08/21 06:54:38;;;;;;;;;;;;;;;;;;10500555;28;19925;-63
2022/08/21 06:59:40;;;;;;;;;;;;;;;;;;10499679;28;19952;-63
2022/08/21 07:04:43;;;;;;;;;;;;;;;;;;10500263;28;19924;-63
2022/08/21 07:09:45;;;;;;;;;;;;;;;;;;10499861;28;19925;-63
2022/08/21 07:14:48;;;;;;;;;;;;;;;;;;10499895;28;19998;-63
2022/08/21 07:19:51;;;;;;;;;;;;;;;;;;10500063;28;19928;-63
2022/08/21 07:24:53;;;;;;;;;;;;;;;;;;10498875;28;20329;-63
2022/08/21 07:29:55;;;;;;;;;;;;;;;;;;10499372;28;19931;-63
2022/08/21 07:34:57;;;;;;;;;;;;;;;;;;10498762;28;19931;-63
2022/08/21 07:39:59;;;;;;;;;;;;;;;;;;10499148;28;19960;-63
2022/08/21 07:45:01;;;;;;;;;;;;;;;;;;10499082;28;20011;-63
2022/08/21 07:50:03;;;;;;;;;;;;;;;;;;10498917;28;19931;-63
2022/08/21 07:55:06;;;;;;;;;;;;;;;;;;10498224;28;19963;-63
2022/08/21 08:00:08;;;;;;;;;;;;;;;;;;10498096;28;20367;-63
2022/08/21 08:05:11;;;;;;;;;;;;;;;;;;10498606;28;19925;-63
2022/08/21 08:10:13;;;;;;;;;;;;;;;;;;10498508;28;19925;-63
2022/08/21 08:15:15;;;;;;;;;;;;;;;;;;10498425;28;19930;-63
2022/08/21 08:20:18;;;;;;;;;;;;;;;;;;10498846;28;19931;-63
2022/08/21 08:25:20;;;;;;;;;;;;;;;;;;10497533;28;19947;-63
2022/08/21 08:30:23;;;;;;;;;;;;;;;;;;10497463;28;20264;-63
2022/08/21 08:35:25;;;;;;;;;;;;;;;;;;10498019;28;19932;-63
2022/08/21 08:40:28;;;;;;;;;;;;;;;;;;10497899;28;19925;-63
2022/08/21 08:45:31;;;;;;;;;;;;;;;;;;10483497;28;19925;-64
2022/08/21 08:50:33;;;;;;;;;;;;;;;;;;10487596;28;20280;-64
2022/08/21 08:55:35;;;;;;;;;;;;;;;;;;10504630;28;20291;-64
2022/08/21 09:00:37;;;;;;;;;;;;;;;;;;10504426;28;19931;-63
2022/08/21 09:05:40;;;;;;;;;;;;;;;;;;10504198;28;20389;-64
2022/08/21 09:10:42;;;;;;;;;;;;;;;;;;10504068;28;19935;-64
2022/08/21 09:15:44;;;;;;;;;;;;;;;;;;10504535;28;19932;-64
2022/08/21 09:20:46;;;;;;;;;;;;;;;;;;10504305;28;19924;-64
2022/08/21 09:25:48;;;;;;;;;;;;;;;;;;10504121;28;19936;-62
2022/08/21 09:30:51;;;;;;;;;;;;;;;;;;10503287;28;20295;-63
2022/08/21 09:35:53;;;;;;;;;;;;;;;;;;10503155;28;19931;-64
2022/08/21 09:40:56;;;;;;;;;;;;;;;;;;10502935;28;19932;-64
2022/08/21 09:45:58;;;;;;;;;;;;;;;;;;10502525;28;19925;-64
2022/08/21 09:51:00;;;;;;;;;;;;;;;;;;10502488;28;20378;-64
2022/08/21 10:01:25;;;;;;;;;;;;;;;;;;10502729;28;19924;-63
2022/08/21 10:06:30;;;;;;;;;;;;;;;;;;10501849;28;19993;-64
2022/08/21 10:11:32;;;;;;;;;;;;;;;;;;10502356;28;19935;-64
2022/08/21 10:16:34;;;;;;;;;;;;;;;;;;10502140;28;19925;-64
2022/08/21 10:21:36;;;;;;;;;;;;;;;;;;10501890;28;19924;-64
2022/08/21 10:26:43;;;;;;;;;;;;;;;;;;10500329;28;21457;-64
2022/08/21 10:31:45;;;;;;;;;;;;;;;;;;10501403;28;19924;-64
2022/08/21 10:36:47;;;;;;;;;;;;;;;;;;10501325;28;19924;-64
2022/08/21 10:41:49;;;;;;;;;;;;;;;;;;10501056;28;19924;-64
2022/08/21 10:46:52;;;;;;;;;;;;;;;;;;10500500;28;19935;-64
2022/08/21 10:51:54;;;;;;;;;;;;;;;;;;10500654;28;19924;-64
2022/08/21 10:56:56;;;;;;;;;;;;;;;;;;10500364;28;20355;-64
2022/08/21 11:01:58;;;;;;;;;;;;;;;;;;10500412;28;19998;-64
2022/08/21 11:07:00;;;;;;;;;;;;;;;;;;10499608;28;19924;-64
2022/08/21 11:12:02;;;;;;;;;;;;;;;;;;10499934;28;19935;-64
2022/08/21 11:17:13;;;;;;;;;;;;;;;;;;10499835;28;19928;-61
2022/08/21 11:22:15;;;;;;;;;;;;;;;;;;10498990;28;20298;-62
2022/08/21 11:27:17;;;;;;;;;;;;;;;;;;10498798;28;20359;-62
2022/08/21 11:32:19;;;;;;;;;;;;;;;;;;10498710;28;19925;-62
2022/08/21 11:37:21;;;;;;;;;;;;;;;;;;10498597;28;19929;-61
2022/08/21 11:42:24;;;;;;;;;;;;;;;;;;10499082;28;19925;-62
2022/08/21 11:47:26;;;;;;;;;;;;;;;;;;10498898;28;19932;-62
2022/08/21 11:52:28;;;;;;;;;;;;;;;;;;10498858;28;19931;-63
2022/08/21 11:57:30;;;;;;;;;;;;;;;;;;10498124;28;20299;-63
2022/08/21 12:02:32;;;;;;;;;;;;;;;;;;10512998;22;19924;-67
2022/08/21 12:07:34;;;;;;;;;;;;;;;;;;10497794;28;20401;-67
2022/08/21 12:12:36;;;;;;;;;;;;;;;;;;10497792;28;19973;-67
2022/08/21 12:17:38;;;;;;;;;;;;;;;;;;10499383;28;19928;-67
2022/08/21 12:22:40;;;;;;;;;;;;;;;;;;10506019;28;20393;-67
2022/08/21 12:27:43;;;;;;;;;;;;;;;;;;10506309;28;19924;-67
2022/08/21 12:32:45;;;;;;;;;;;;;;;;;;10505610;28;19925;-67
2022/08/21 12:37:47;;;;;;;;;;;;;;;;;;10506081;28;19925;-67
2022/08/21 12:42:49;;;;;;;;;;;;;;;;;;10505786;28;19924;-67
2022/08/21 12:47:59;;;;;;;;;;;;;;;;;;10505615;28;19931;-67
2022/08/21 12:53:01;;;;;;;;;;;;;;;;;;10505403;28;19925;-67
2022/08/21 12:58:03;;;;;;;;;;;;;;;;;;10504477;28;20278;-67
2022/08/21 13:03:05;;;;;;;;;;;;;;;;;;10504277;28;19925;-67
2022/08/21 13:08:07;;;;;;;;;;;;;;;;;;10505041;28;19931;-67
2022/08/21 13:13:10;;;;;;;;;;;;;;;;;;10504618;28;19924;-67
2022/08/21 13:18:13;;;;;;;;;;;;;;;;;;10504472;28;19928;-67
2022/08/21 13:23:15;;;;;;;;;;;;;;;;;;10504194;28;19935;-68
2022/08/21 13:28:18;;;;;;;;;;;;;;;;;;10504115;28;19924;-68
2022/08/21 13:33:20;;;;;;;;;;;;;;;;;;10502298;28;20299;-68
2022/08/21 13:38:23;;;;;;;;;;;;;;;;;;10485815;28;19928;-68
2022/08/21 13:43:28;;;;;;;;;;;;;;;;;;10504057;28;19931;-68
2022/08/21 13:48:30;;;;;;;;;;;;;;;;;;10503839;28;19929;-68
2022/08/21 13:53:32;;;;;;;;;;;;;;;;;;10502499;28;19931;-68
2022/08/21 13:58:34;;;;;;;;;;;;;;;;;;10502931;28;19994;-68
2022/08/21 14:03:36;;;;;;;;;;;;;;;;;;10502472;28;20256;-66
2022/08/21 14:08:40;;;;;;;;;;;;;;;;;;10501863;28;19928;-68
2022/08/21 14:13:42;;;;;;;;;;;;;;;;;;10502381;28;19924;-67
2022/08/21 14:18:45;;;;;;;;;;;;;;;;;;10501984;28;19925;-68
2022/08/21 14:23:47;;;;;;;;;;;;;;;;;;10501270;28;20367;-68
2022/08/21 14:28:49;;;;;;;;;;;;;;;;;;10501616;28;19931;-68
2022/08/21 14:33:51;;;;;;;;;;;;;;;;;;10500740;28;19928;-67
2022/08/21 14:38:53;;;;;;;;;;;;;;;;;;10500634;28;20363;-68
2022/08/21 14:43:55;;;;;;;;;;;;;;;;;;10500326;28;19947;-67
2022/08/21 14:49:07;;;;;;;;;;;;;;;;;;10500163;28;20318;-67
2022/08/21 14:54:09;;;;;;;;;;;;;;;;;;10500676;28;19931;-67
2022/08/21 14:59:11;;;;;;;;;;;;;;;;;;10499657;28;19947;-67
2022/08/21 15:04:13;;;;;;;;;;;;;;;;;;10500265;28;19931;-67
2022/08/21 15:09:16;;;;;;;;;;;;;;;;;;10500050;28;19931;-66
2022/08/21 15:14:18;;;;;;;;;;;;;;;;;;10499283;28;19924;-66
2022/08/21 15:19:20;;;;;;;;;;;;;;;;;;10499468;28;19932;-67
2022/08/21 15:24:22;;;;;;;;;;;;;;;;;;10498960;28;19928;-66
2022/08/21 15:29:24;;;;;;;;;;;;;;;;;;10499365;28;19924;-67
2022/08/21 15:34:33;;;;;;;;;;;;;;;;;;10499239;28;20283;-67
2022/08/21 15:39:35;;;;;;;;;;;;;;;;;;10498587;28;20372;-67
2022/08/21 15:44:38;;;;;;;;;;;;;;;;;;10498542;28;20386;-67
2022/08/21 15:49:44;;;;;;;;;;;;;;;;;;10498938;28;19928;-66
2022/08/21 15:54:46;;;;;;;;;;;;;;;;;;10498749;28;19925;-66
2022/08/21 15:59:48;;;;;;;;;;;;;;;;;;10497982;28;19925;-66
2022/08/21 16:04:51;;;;;;;;;;;;;;;;;;10498709;28;19935;-66
2022/08/21 16:09:53;;;;;;;;;;;;;;;;;;10498509;28;19931;-66
2022/08/21 16:14:55;;;;;;;;;;;;;;;;;;10498489;28;19924;-66
2022/08/21 16:19:57;;;;;;;;;;;;;;;;;;10498431;28;19924;-65
2022/08/21 16:24:59;;;;;;;;;;;;;;;;;;10498278;28;19931;-65
2022/08/21 16:30:01;;;;;;;;;;;;;;;;;;10497494;28;19936;-65
2022/08/21 16:35:03;;;;;;;;;;;;;;;;;;10498086;28;19925;-66
2022/08/21 16:40:05;;;;;;;;;;;;;;;;;;10498023;28;19931;-65
2022/08/21 16:45:08;;;;;;;;;;;;;;;;;;10497267;28;19924;-64
2022/08/21 16:50:10;;;;;;;;;;;;;;;;;;10497731;28;19932;-65
2022/08/21 16:55:12;;;;;;;;;;;;;;;;;;10498174;28;19924;-65
2022/08/21 17:00:14;;;;;;;;;;;;;;;;;;10497384;28;19925;-65
2022/08/21 17:05:16;;;;;;;;;;;;;;;;;;10499367;28;19924;-65
2022/08/21 17:10:19;;;;;;;;;;;;;;;;;;10505206;28;19931;-65
2022/08/21 17:15:21;;;;;;;;;;;;;;;;;;10504508;28;20402;-65
2022/08/21 17:20:24;;;;;;;;;;;;;;;;;;10503836;28;20294;-65
2022/08/21 17:25:27;;;;;;;;;;;;;;;;;;10504300;28;19931;-65
2022/08/21 17:30:30;;;;;;;;;;;;;;;;;;10503898;28;19924;-65
2022/08/21 17:35:32;;;;;;;;;;;;;;;;;;10503983;28;19924;-65
2022/08/21 17:40:34;;;;;;;;;;;;;;;;;;10503774;28;19925;-65
2022/08/21 17:45:38;;;;;;;;;;;;;;;;;;10504289;28;19951;-65
2022/08/21 17:50:40;;;;;;;;;;;;;;;;;;10502695;28;19947;-65
2022/08/21 17:55:42;;;;;;;;;;;;;;;;;;10502534;28;20279;-65
2022/08/21 18:00:44;;;;;;;;;;;;;;;;;;10502749;28;19924;-65
2022/08/21 18:05:46;;;;;;;;;;;;;;;;;;10502752;28;19925;-65
2022/08/21 18:10:49;;;;;;;;;;;;;;;;;;10502512;28;19925;-65
2022/08/21 18:15:51;;;;;;;;;;;;;;;;;;10501275;28;20393;-65
2022/08/21 18:20:54;;;;;;;;;;;;;;;;;;10501423;28;20275;-65
2022/08/21 18:25:56;;;;;;;;;;;;;;;;;;10501262;28;19932;-64
2022/08/21 18:30:59;;;;;;;;;;;;;;;;;;10500977;28;20391;-64
2022/08/21 18:36:01;;;;;;;;;;;;;;;;;;10500864;28;19928;-64
2022/08/21 18:41:03;;;;;;;;;;;;;;;;;;10500640;28;20371;-64
2022/08/21 18:46:10;;;;;;;;;;;;;;;;;;10500385;28;20355;-64
2022/08/21 18:51:13;;;;;;;;;;;;;;;;;;10501533;28;19932;-64
2022/08/21 18:56:15;;;;;;;;;;;;;;;;;;10483008;28;19931;-64
2022/08/21 19:01:17;;;;;;;;;;;;;;;;;;10500273;28;19925;-64
2022/08/21 19:06:21;;;;;;;;;;;;;;;;;;10500241;28;19924;-64
2022/08/21 19:11:24;;;;;;;;;;;;;;;;;;10500027;28;19924;-64
2022/08/21 19:16:26;;;;;;;;;;;;;;;;;;10499280;28;20375;-64
2022/08/21 19:21:28;;;;;;;;;;;;;;;;;;10499751;28;19924;-64
2022/08/21 19:26:30;;;;;;;;;;;;;;;;;;10499496;28;19925;-64
2022/08/21 19:31:32;;;;;;;;;;;;;;;;;;10498831;28;20264;-63
2022/08/21 19:36:34;;;;;;;;;;;;;;;;;;10498771;28;20306;-64
2022/08/21 19:41:37;;;;;;;;;;;;;;;;;;10499601;28;19932;-64
2022/08/21 19:46:39;;;;;;;;;;;;;;;;;;10499112;28;19932;-64
2022/08/21 19:51:42;;;;;;;;;;;;;;;;;;10498282;28;19924;-63
2022/08/21 19:56:44;;;;;;;;;;;;;;;;;;10498240;28;20279;-63
2022/08/21 20:01:46;;;;;;;;;;;;;;;;;;10498793;28;19932;-63
2022/08/21 20:06:48;;;;;;;;;;;;;;;;;;10498421;28;19928;-63
2022/08/21 20:11:50;;;;;;;;;;;;;;;;;;10497956;28;19924;-63
2022/08/21 20:16:52;;;;;;;;;;;;;;;;;;10498523;28;19932;-63
2022/08/21 20:21:57;;;;;;;;;;;;;;;;;;10497906;28;20367;-63
2022/08/21 20:26:59;;;;;;;;;;;;;;;;;;10498258;28;19932;-63
2022/08/21 20:32:03;;;;;;;;;;;;;;;;;;10498197;28;19929;-63
2022/08/21 20:37:05;;;;;;;;;;;;;;;;;;10497358;28;19924;-63
2022/08/21 20:42:07;;;;;;;;;;;;;;;;;;10504925;28;19931;-63
2022/08/21 20:47:09;;;;;;;;;;;;;;;;;;10505091;28;20310;-63
2022/08/21 20:52:11;;;;;;;;;;;;;;;;;;10504958;28;19952;-63
2022/08/21 20:57:33;;;;;;;;;;;;;;;;;;10504674;28;20280;-63
2022/08/21 21:02:35;;;;;;;;;;;;;;;;;;10504443;28;19935;-63
2022/08/21 21:07:38;;;;;;;;;;;;;;;;;;10504922;28;19928;-63
2022/08/21 21:12:40;;;;;;;;;;;;;;;;;;10504510;28;20355;-63
2022/08/21 21:17:42;;;;;;;;;;;;;;;;;;10504015;28;19939;-63
2022/08/21 21:22:44;;;;;;;;;;;;;;;;;;10504646;28;19933;-63
2022/08/21 21:27:46;;;;;;;;;;;;;;;;;;10504240;28;19925;-63
2022/08/21 21:32:49;;;;;;;;;;;;;;;;;;10504310;28;19925;-64
2022/08/21 21:37:52;;;;;;;;;;;;;;;;;;10486182;28;19934;-63
2022/08/21 21:42:54;;;;;;;;;;;;;;;;;;10503151;28;20360;-63
2022/08/21 21:47:56;;;;;;;;;;;;;;;;;;10502863;28;19925;-63
2022/08/21 21:52:58;;;;;;;;;;;;;;;;;;10501969;28;20282;-63
2022/08/21 21:58:00;;;;;;;;;;;;;;;;;;10503094;28;19928;-63
2022/08/21 22:03:03;;;;;;;;;;;;;;;;;;10502630;28;19925;-63
2022/08/21 22:08:05;;;;;;;;;;;;;;;;;;10502516;28;19924;-63
2022/08/21 22:13:08;;;;;;;;;;;;;;;;;;10501892;28;19931;-63
2022/08/21 22:18:11;;;;;;;;;;;;;;;;;;10502779;28;19932;-63
2022/08/21 22:23:13;;;;;;;;;;;;;;;;;;10501438;28;19924;-63
2022/08/21 22:28:16;;;;;;;;;;;;;;;;;;10501143;28;20355;-63
2022/08/21 22:33:19;;;;;;;;;;;;;;;;;;10501024;28;20275;-63
2022/08/21 22:38:22;;;;;;;;;;;;;;;;;;10501394;28;19932;-63
2022/08/21 22:43:24;;;;;;;;;;;;;;;;;;10483478;28;19925;-63
2022/08/21 22:48:26;;;;;;;;;;;;;;;;;;10500931;28;19925;-62
2022/08/21 22:53:28;;;;;;;;;;;;;;;;;;10500183;28;19932;-63
2022/08/21 22:58:31;;;;;;;;;;;;;;;;;;10500625;28;19931;-63
2022/08/21 23:03:33;;;;;;;;;;;;;;;;;;10498989;28;19946;-63
2022/08/21 23:08:35;;;;;;;;;;;;;;;;;;10500178;28;20377;-63
2022/08/21 23:13:37;;;;;;;;;;;;;;;;;;10499438;28;20302;-63
2022/08/21 23:18:39;;;;;;;;;;;;;;;;;;10499292;28;20309;-63
2022/08/21 23:23:41;;;;;;;;;;;;;;;;;;10500233;28;19929;-63
2022/08/21 23:28:43;;;;;;;;;;;;;;;;;;10499537;28;19924;-63
2022/08/21 23:33:46;;;;;;;;;;;;;;;;;;10499347;28;19931;-63
2022/08/21 23:38:50;;;;;;;;;;;;;;;;;;10498723;28;19931;-63
2022/08/21 23:43:52;;;;;;;;;;;;;;;;;;10498588;28;19950;-63
2022/08/21 23:48:54;;;;;;;;;;;;;;;;;;10480657;28;19924;-63
2022/08/21 23:53:56;;;;;;;;;;;;;;;;;;10499346;28;19924;-63
2022/08/21 23:58:58;;;;;;;;;;;;;;;;;;10498111;28;20279;-63
